Time;durP1;ratioP1;P1;durP2;ratioP2;P2;SDS_P1;SDS_P2;PMS_P1;PMS_P2;Temp;Humidity;BMP_temperature;BMP_pressure;BME280_temperature;BME280_humidity;BME280_pressure;Samples;Min_cycle;Max_cycle;Signal;HPM_P1;HPM_P2
2023/10/22 00:02:13;;;;;;;6.03;2.67;;;;;;;19.38;100.00;95240.81;5028117;28;20163;-81
2023/10/22 00:04:39;;;;;;;7.47;3.40;;;;;;;18.96;100.00;95249.06;5034076;28;20483;-82
2023/10/22 00:07:08;;;;;;;7.37;3.87;;;;;;;19.06;100.00;95251.94;5027444;28;20061;-82
2023/10/22 00:09:34;;;;;;;6.83;3.70;;;;;;;19.18;100.00;95251.91;5024974;28;20381;-83
2023/10/22 00:12:00;;;;;;;7.53;3.97;;;;;;;18.92;100.00;95255.91;5023382;28;20098;-82
2023/10/22 00:14:26;;;;;;;7.63;3.90;;;;;;;18.87;100.00;95257.66;5020016;28;20029;-82
2023/10/22 00:16:52;;;;;;;8.13;4.20;;;;;;;18.74;100.00;95258.72;5023131;28;20098;-82
2023/10/22 00:19:17;;;;;;;5.70;3.93;;;;;;;19.05;100.00;95260.19;5030100;28;20017;-81
2023/10/22 00:21:50;;;;;;;7.77;3.43;;;;;;;18.59;100.00;95254.66;5020890;28;20037;-81
2023/10/22 00:24:16;;;;;;;6.97;3.35;;;;;;;18.80;100.00;95263.91;5019131;28;20176;-82
2023/10/22 00:26:41;;;;;;;6.57;3.30;;;;;;;18.57;100.00;95255.94;5039248;28;20041;-82
2023/10/22 00:29:07;;;;;;;7.50;3.60;;;;;;;18.79;100.00;95258.84;5034568;28;20502;-82
2023/10/22 00:31:32;;;;;;;5.47;3.60;;;;;;;18.79;100.00;95264.16;5026622;28;20039;-82
2023/10/22 00:33:58;;;;;;;6.40;3.97;;;;;;;18.54;100.00;95261.72;5039721;28;20021;-82
2023/10/22 00:36:27;;;;;;;6.50;3.50;;;;;;;18.19;100.00;95267.06;5030631;28;20029;-82
2023/10/22 00:38:52;;;;;;;7.83;4.30;;;;;;;18.50;100.00;95261.38;5034375;28;20025;-82
2023/10/22 00:41:21;;;;;;;6.00;3.63;;;;;;;18.87;100.00;95255.00;5025780;28;20096;-81
2023/10/22 00:44:37;;;;;;;5.93;3.63;;;;;;;18.70;100.00;95258.34;5046564;28;20363;-82
2023/10/22 00:47:06;;;;;;;6.40;3.97;;;;;;;18.69;100.00;95256.75;5044795;28;20024;-82
2023/10/22 00:49:34;;;;;;;7.03;3.63;;;;;;;18.68;100.00;95259.63;5030620;28;20025;-82
2023/10/22 00:52:00;;;;;;;6.10;3.53;;;;;;;18.61;100.00;95263.25;5030720;28;20111;-82
2023/10/22 00:54:27;;;;;;;5.57;3.53;;;;;;;18.89;100.00;95264.38;5030474;28;20052;-82
2023/10/22 00:56:53;;;;;;;9.67;4.27;;;;;;;19.17;100.00;95260.94;5022994;28;20071;-82
2023/10/22 00:59:21;;;;;;;8.73;4.50;;;;;;;19.23;100.00;95260.00;5016691;28;20120;-82
2023/10/22 01:01:46;;;;;;;6.93;4.37;;;;;;;19.59;100.00;95251.88;5031497;28;20074;-81
2023/10/22 01:04:12;;;;;;;5.60;3.80;;;;;;;19.60;100.00;95262.28;5019932;28;20025;-82
2023/10/22 01:06:39;;;;;;;6.57;3.87;;;;;;;19.90;100.00;95259.38;5025482;28;20116;-82
2023/10/22 01:09:11;;;;;;;6.03;4.40;;;;;;;19.62;100.00;95268.19;5023315;28;20018;-81
2023/10/22 01:11:55;;;;;;;6.93;4.00;;;;;;;19.70;100.00;95261.69;5039194;28;20029;-82
2023/10/22 01:14:20;;;;;;;6.63;3.90;;;;;;;19.71;100.00;95264.09;5041812;28;20028;-82
2023/10/22 01:16:46;;;;;;;4.80;3.40;;;;;;;19.29;100.00;95271.56;5023239;28;20060;-82
2023/10/22 01:19:11;;;;;;;6.07;3.97;;;;;;;19.39;100.00;95263.78;5020118;28;20094;-82
2023/10/22 01:21:37;;;;;;;8.07;3.53;;;;;;;19.12;100.00;95273.38;5046754;28;20032;-82
2023/10/22 01:24:03;;;;;;;6.07;3.80;;;;;;;19.04;100.00;95272.66;5026692;28;20018;-82
2023/10/22 01:26:29;;;;;;;6.50;4.00;;;;;;;19.67;100.00;95270.16;5027029;28;20108;-82
2023/10/22 01:28:54;;;;;;;5.10;3.07;;;;;;;19.49;100.00;95279.97;5015236;28;20047;-82
2023/10/22 01:31:36;;;;;;;7.43;4.07;;;;;;;19.69;100.00;95268.09;5023292;28;20501;-82
2023/10/22 01:34:02;;;;;;;5.77;3.50;;;;;;;19.23;100.00;95278.66;5027074;28;20025;-82
2023/10/22 01:36:29;;;;;;;5.90;3.67;;;;;;;19.49;100.00;95273.81;5016571;28;20033;-82
2023/10/22 01:38:54;;;;;;;6.90;3.53;;;;;;;19.44;100.00;95274.50;5016469;28;20605;-82
2023/10/22 01:41:21;;;;;;;5.50;3.27;;;;;;;19.36;100.00;95274.91;5035897;28;20558;-82
2023/10/22 01:43:46;;;;;;;5.23;2.97;;;;;;;19.27;100.00;95271.78;5048361;28;20025;-82
2023/10/22 01:46:12;;;;;;;5.63;3.27;;;;;;;19.02;100.00;95273.97;5024965;28;20105;-82
2023/10/22 01:48:38;;;;;;;5.80;3.70;;;;;;;18.92;100.00;95277.25;5027710;28;20025;-82
2023/10/22 01:51:04;;;;;;;4.43;2.83;;;;;;;18.78;100.00;95273.22;5046507;28;20021;-82
2023/10/22 01:53:30;;;;;;;5.67;3.00;;;;;;;19.16;100.00;95274.50;5027830;28;20487;-82
2023/10/22 01:55:58;;;;;;;5.27;2.80;;;;;;;19.14;100.00;95265.94;5021591;28;20108;-82
2023/10/22 01:58:24;;;;;;;4.97;2.83;;;;;;;19.17;100.00;95268.94;5032911;28;20063;-82
2023/10/22 02:00:49;;;;;;;4.07;2.67;;;;;;;18.75;100.00;95273.69;5029264;28;20021;-82
2023/10/22 02:03:15;;;;;;;5.37;3.30;;;;;;;18.50;100.00;95280.00;5035233;28;20025;-82
2023/10/22 02:05:41;;;;;;;5.17;2.93;;;;;;;18.29;100.00;95280.59;5028391;28;20032;-82
2023/10/22 02:08:06;;;;;;;4.40;2.90;;;;;;;18.80;100.00;95271.91;5026360;28;20020;-82
2023/10/22 02:10:33;;;;;;;8.73;3.57;;;;;;;18.36;100.00;95283.97;5018801;28;20029;-82
2023/10/22 02:13:05;;;;;;;4.33;2.70;;;;;;;18.46;100.00;95280.72;5049207;28;20115;-81
2023/10/22 02:15:31;;;;;;;6.40;2.83;;;;;;;18.23;100.00;95281.50;5027881;28;20022;-82
2023/10/22 02:17:56;;;;;;;5.17;2.23;;;;;;;18.13;100.00;95288.22;5030622;28;20344;-82
2023/10/22 02:20:22;;;;;;;6.27;2.50;;;;;;;18.04;100.00;95294.09;5020718;28;20070;-82
2023/10/22 02:22:47;;;;;;;3.67;2.13;;;;;;;18.45;100.00;95287.91;5020640;28;20021;-82
2023/10/22 02:25:13;;;;;;;4.63;2.70;;;;;;;18.42;100.00;95291.03;5030822;28;20029;-82
2023/10/22 02:27:38;;;;;;;3.93;2.37;;;;;;;18.28;100.00;95294.97;5032287;28;20017;-82
2023/10/22 02:30:05;;;;;;;5.53;2.47;;;;;;;18.38;100.00;95293.34;5038764;28;20028;-82
2023/10/22 02:32:31;;;;;;;5.57;2.33;;;;;;;18.20;100.00;95289.97;5023281;28;20515;-82
2023/10/22 02:34:57;;;;;;;7.80;2.07;;;;;;;18.50;100.00;95293.31;5038164;28;20048;-82
2023/10/22 02:37:23;;;;;;;4.83;2.37;;;;;;;18.22;100.00;95288.69;5013652;28;20546;-82
2023/10/22 02:39:50;;;;;;;5.60;2.27;;;;;;;18.48;100.00;95291.97;5031387;28;20032;-82
2023/10/22 02:42:16;;;;;;;5.77;2.40;;;;;;;18.04;100.00;95281.63;5027451;28;20670;-82
2023/10/22 02:44:41;;;;;;;4.37;1.93;;;;;;;18.56;100.00;95292.41;5015809;28;20025;-81
2023/10/22 02:47:07;;;;;;;4.20;2.17;;;;;;;18.21;100.00;95288.91;5028492;28;20025;-82
2023/10/22 02:49:32;;;;;;;5.03;1.67;;;;;;;17.86;100.00;95292.31;5023005;28;20021;-82
2023/10/22 02:51:58;;;;;;;2.93;1.53;;;;;;;18.20;100.00;95293.44;5030495;28;20026;-82
2023/10/22 02:54:25;;;;;;;3.00;1.53;;;;;;;18.72;100.00;95292.78;5029502;28;20031;-82
2023/10/22 02:56:50;;;;;;;5.73;1.77;;;;;;;18.19;100.00;95297.13;5014702;28;20041;-82
2023/10/22 02:59:16;;;;;;;4.27;2.23;;;;;;;18.39;100.00;95296.81;5032165;28;20022;-82
2023/10/22 03:01:41;;;;;;;3.10;1.40;;;;;;;18.29;100.00;95302.69;5011671;28;20030;-82
2023/10/22 03:04:07;;;;;;;5.70;2.10;;;;;;;18.02;100.00;95304.16;5030246;28;20083;-82
2023/10/22 03:06:32;;;;;;;4.67;2.37;;;;;;;18.36;100.00;95303.41;5032432;28;20033;-82
2023/10/22 03:08:59;;;;;;;2.93;1.60;;;;;;;18.37;100.00;95299.69;5030050;28;20395;-82
2023/10/22 03:11:24;;;;;;;3.73;2.00;;;;;;;18.32;100.00;95306.75;5031872;28;20032;-82
2023/10/22 03:13:50;;;;;;;7.80;3.37;;;;;;;18.01;100.00;95305.22;5034353;28;20036;-82
2023/10/22 03:16:21;;;;;;;15.03;10.93;;;;;;;17.98;100.00;95308.31;5031833;28;20022;-82
2023/10/22 03:18:47;;;;;;;8.90;6.03;;;;;;;18.11;100.00;95311.59;5028787;28;20036;-82
2023/10/22 03:21:20;;;;;;;4.90;2.80;;;;;;;18.46;100.00;95308.16;5020157;28;20048;-82
2023/10/22 03:23:48;;;;;;;4.45;2.60;;;;;;;18.55;100.00;95309.44;5029151;28;20079;-81
2023/10/22 03:26:16;;;;;;;3.93;2.53;;;;;;;18.56;100.00;95315.56;5032860;28;20843;-82
2023/10/22 03:28:42;;;;;;;5.07;3.10;;;;;;;18.78;100.00;95319.31;4998393;28;20021;-82
2023/10/22 03:31:08;;;;;;;6.27;3.17;;;;;;;18.84;100.00;95320.19;5013381;28;20024;-82
2023/10/22 03:33:34;;;;;;;5.87;3.10;;;;;;;18.55;100.00;95316.63;5025168;28;20399;-81
2023/10/22 03:36:01;;;;;;;6.43;3.80;;;;;;;18.88;100.00;95317.88;5027691;28;20029;-81
2023/10/22 03:38:27;;;;;;;6.87;3.33;;;;;;;19.40;100.00;95316.03;5023678;28;20053;-82
2023/10/22 03:41:03;;;;;;;5.17;2.80;;;;;;;19.33;100.00;95314.56;5041365;28;20479;-81
2023/10/22 03:43:30;;;;;;;6.70;2.93;;;;;;;19.43;100.00;95318.22;5027703;28;20099;-82
2023/10/22 03:45:57;;;;;;;4.70;2.70;;;;;;;19.71;98.60;95321.97;5020490;28;20025;-82
2023/10/22 03:48:23;;;;;;;5.17;2.90;;;;;;;19.44;98.04;95325.19;5008290;28;20113;-81
2023/10/22 03:50:49;;;;;;;4.93;2.67;;;;;;;19.24;100.00;95332.78;5028270;28;20036;-82
2023/10/22 03:53:15;;;;;;;4.33;2.60;;;;;;;19.44;98.02;95329.72;5024185;28;20016;-81
2023/10/22 03:55:40;;;;;;;7.37;3.20;;;;;;;19.42;94.02;95327.28;4999612;28;20784;-81
2023/10/22 03:58:06;;;;;;;4.83;2.40;;;;;;;19.64;93.32;95337.31;5031077;28;20025;-82
2023/10/22 04:00:32;;;;;;;4.30;2.10;;;;;;;19.61;93.65;95338.56;5031111;28;20025;-81
2023/10/22 04:02:58;;;;;;;3.67;2.10;;;;;;;19.51;91.48;95335.72;5035093;28;20032;-82
2023/10/22 04:05:24;;;;;;;3.70;2.50;;;;;;;19.27;93.75;95353.63;5033686;28;20196;-82
2023/10/22 04:08:03;;;;;;;3.53;2.00;;;;;;;19.34;94.88;95353.50;5022378;28;20025;-81
2023/10/22 04:10:44;;;;;;;5.10;2.67;;;;;;;19.34;95.99;95362.31;5012398;28;20499;-82
2023/10/22 04:13:09;;;;;;;5.23;2.67;;;;;;;19.49;91.32;95359.97;5028224;28;20044;-82
2023/10/22 04:15:37;;;;;;;6.37;2.70;;;;;;;19.28;90.77;95363.25;5019447;28;20483;-81
2023/10/22 04:18:21;;;;;;;5.73;3.00;;;;;;;19.32;91.97;95369.75;5030462;28;20501;-82
2023/10/22 04:20:47;;;;;;;9.20;3.08;;;;;;;19.18;92.63;95358.53;5019669;28;20026;-82
2023/10/22 04:23:13;;;;;;;4.17;1.90;;;;;;;18.89;97.49;95354.97;5046813;28;20051;-82
2023/10/22 04:25:40;;;;;;;4.60;2.20;;;;;;;18.35;100.00;95370.19;5018911;28;20056;-82
2023/10/22 04:28:13;;;;;;;4.47;2.50;;;;;;;18.23;100.00;95369.34;5041408;28;20021;-81
2023/10/22 04:30:39;;;;;;;4.93;2.42;;;;;;;18.49;100.00;95366.25;5022526;28;20035;-81
2023/10/22 04:33:06;;;;;;;4.80;2.77;;;;;;;18.61;100.00;95368.91;5021453;28;20178;-82
2023/10/22 04:35:33;;;;;;;5.00;2.20;;;;;;;18.84;97.99;95368.16;5030497;28;20071;-82
2023/10/22 04:38:00;;;;;;;4.57;1.97;;;;;;;18.71;98.74;95368.34;5034319;28;20088;-82
2023/10/22 04:40:30;;;;;;;3.97;2.20;;;;;;;18.85;97.61;95367.13;5027886;28;20030;-82
2023/10/22 04:42:59;;;;;;;4.70;2.03;;;;;;;18.54;96.42;95385.03;5039045;28;20040;-81
2023/10/22 04:45:24;;;;;;;4.47;2.00;;;;;;;18.75;96.44;95394.34;5039715;28;20035;-82
2023/10/22 04:47:50;;;;;;;3.63;1.90;;;;;;;18.77;95.85;95392.25;5034479;28;20021;-81
2023/10/22 04:50:16;;;;;;;4.47;2.13;;;;;;;18.71;93.70;95390.50;5010652;28;20025;-82
2023/10/22 04:52:41;;;;;;;3.70;1.90;;;;;;;18.37;94.91;95392.03;5013692;28;20037;-81
2023/10/22 04:55:11;;;;;;;4.57;2.67;;;;;;;18.06;98.95;95398.44;5026742;28;20052;-82
2023/10/22 04:57:36;;;;;;;5.40;2.77;;;;;;;17.89;100.00;95408.91;5020339;28;20037;-81
2023/10/22 05:00:07;;;;;;;8.63;3.30;;;;;;;17.60;100.00;95399.81;5045854;28;20040;-81
2023/10/22 05:02:33;;;;;;;6.93;2.70;;;;;;;17.87;100.00;95403.81;5031911;28;20036;-82
2023/10/22 05:04:58;;;;;;;9.23;3.50;;;;;;;18.37;98.27;95408.81;5029642;28;20030;-81
2023/10/22 05:07:24;;;;;;;11.70;4.23;;;;;;;18.51;97.77;95400.63;5038283;28;20041;-81
2023/10/22 05:09:51;;;;;;;11.60;4.60;;;;;;;18.37;95.51;95411.47;5029515;28;20060;-81
2023/10/22 05:12:17;;;;;;;9.87;3.63;;;;;;;18.18;98.61;95412.59;5034015;28;20029;-81
2023/10/22 05:14:42;;;;;;;14.20;6.30;;;;;;;17.76;100.00;95419.69;5041979;28;20036;-82
2023/10/22 05:17:24;;;;;;;16.30;7.00;;;;;;;17.39;100.00;95409.06;5058639;28;20052;-82
2023/10/22 05:19:50;;;;;;;9.27;4.03;;;;;;;16.66;100.00;95415.88;5021063;28;20499;-83
2023/10/22 05:22:17;;;;;;;8.13;2.90;;;;;;;16.99;100.00;95414.00;5017975;28;20640;-82
2023/10/22 05:24:49;;;;;;;6.67;2.70;;;;;;;16.67;100.00;95419.38;5050496;28;20033;-81
2023/10/22 05:27:16;;;;;;;7.23;2.33;;;;;;;17.04;100.00;95422.94;5037565;28;20024;-82
2023/10/22 05:29:48;;;;;;;4.73;2.23;;;;;;;17.17;100.00;95420.16;5031363;28;20033;-81
2023/10/22 05:32:17;;;;;;;4.67;2.10;;;;;;;17.22;100.00;95430.09;5042008;28;20029;-82
2023/10/22 05:34:43;;;;;;;3.70;1.80;;;;;;;17.35;100.00;95418.53;5037854;28;20033;-81
2023/10/22 05:37:08;;;;;;;3.13;1.73;;;;;;;17.12;100.00;95420.00;5043500;28;20398;-81
2023/10/22 05:39:36;;;;;;;3.63;1.77;;;;;;;17.18;100.00;95428.94;5028457;28;20434;-82
2023/10/22 05:42:04;;;;;;;5.47;2.20;;;;;;;17.77;100.00;95429.31;5039533;28;20099;-81
2023/10/22 05:44:49;;;;;;;7.93;1.97;;;;;;;17.53;100.00;95431.81;5042399;28;20394;-82
2023/10/22 05:47:15;;;;;;;5.43;1.93;;;;;;;17.85;100.00;95431.69;5022235;28;20021;-81
2023/10/22 05:49:40;;;;;;;4.87;1.73;;;;;;;17.88;100.00;95433.91;5046121;28;20647;-81
2023/10/22 05:52:06;;;;;;;5.10;2.00;;;;;;;17.84;100.00;95448.66;5028537;28;20080;-81
2023/10/22 05:54:32;;;;;;;6.63;3.70;;;;;;;17.68;100.00;95444.75;5028410;28;20028;-82
2023/10/22 05:56:57;;;;;;;4.57;2.40;;;;;;;17.90;100.00;95447.75;5013155;28;20539;-82
2023/10/22 05:59:23;;;;;;;4.77;2.13;;;;;;;17.85;100.00;95452.97;5037671;28;20033;-82
2023/10/22 06:01:49;;;;;;;2.87;1.53;;;;;;;17.85;100.00;95455.63;5023800;28;20707;-82
2023/10/22 06:04:14;;;;;;;6.43;2.40;;;;;;;17.40;100.00;95454.06;5036992;28;20021;-82
2023/10/22 06:06:40;;;;;;;7.13;3.37;;;;;;;17.59;100.00;95460.16;5017888;28;20503;-82
2023/10/22 06:09:12;;;;;;;5.00;2.77;;;;;;;17.63;100.00;95465.84;5027255;28;20025;-82
2023/10/22 06:11:38;;;;;;;7.20;2.80;;;;;;;17.79;100.00;95473.28;5033473;28;20114;-82
2023/10/22 06:17:54;;;;;;;5.10;2.40;;;;;;;18.14;97.00;95473.47;5028924;28;20064;-82
2023/10/22 06:20:19;;;;;;;8.17;1.67;;;;;;;17.77;96.63;95472.69;5027035;28;20021;-82
2023/10/22 06:22:46;;;;;;;8.90;3.23;;;;;;;17.71;100.00;95475.41;5020537;28;20058;-81
2023/10/22 06:25:21;;;;;;;6.57;2.87;;;;;;;17.52;100.00;95475.38;5029271;28;20032;-82
2023/10/22 06:27:51;;;;;;;4.10;2.33;;;;;;;17.74;100.00;95488.22;5037767;28;20061;-81
2023/10/22 06:30:24;;;;;;;5.13;1.93;;;;;;;18.00;100.00;95489.78;5045260;28;20116;-82
2023/10/22 06:32:53;;;;;;;3.22;1.58;;;;;;;18.23;96.68;95492.56;5037192;28;20033;-82
2023/10/22 06:35:19;;;;;;;5.97;1.70;;;;;;;18.44;99.72;95488.59;5013287;28;20839;-82
2023/10/22 06:37:50;;;;;;;4.53;1.83;;;;;;;18.58;97.82;95490.03;5036779;28;20066;-82
2023/10/22 06:40:17;;;;;;;4.50;1.70;;;;;;;18.86;92.74;95499.28;5024392;28;20048;-82
2023/10/22 06:42:43;;;;;;;8.30;2.97;;;;;;;19.38;88.96;95490.63;5020747;28;20029;-82
2023/10/22 06:45:09;;;;;;;4.93;1.50;;;;;;;19.65;84.67;95498.97;5036351;28;20020;-82
2023/10/22 06:47:40;;;;;;;3.93;1.63;;;;;;;20.18;88.10;95512.06;5023030;28;20025;-82
2023/10/22 06:50:08;;;;;;;4.47;1.77;;;;;;;20.31;83.88;95505.66;5028285;28;20045;-82
2023/10/22 06:52:34;;;;;;;4.10;1.40;;;;;;;21.10;76.16;95504.94;5025043;28;20092;-82
2023/10/22 06:55:00;;;;;;;2.90;1.37;;;;;;;21.02;74.16;95508.81;5030503;28;20029;-82
2023/10/22 06:57:26;;;;;;;3.63;1.40;;;;;;;21.08;75.66;95509.72;5015930;28;20043;-82
2023/10/22 06:59:54;;;;;;;4.77;1.40;;;;;;;20.73;80.86;95523.28;5025295;28;20075;-82
2023/10/22 07:02:19;;;;;;;3.10;1.30;;;;;;;20.81;78.26;95514.88;5005157;28;20037;-83
2023/10/22 07:04:47;;;;;;;5.73;1.30;;;;;;;21.70;72.38;95523.00;5023969;28;20560;-82
2023/10/22 07:07:20;;;;;;;5.37;1.43;;;;;;;21.95;67.99;95529.75;5049001;28;20067;-82
2023/10/22 07:09:45;;;;;;;5.47;1.63;;;;;;;22.05;68.54;95533.34;5021723;28;20558;-82
2023/10/22 07:12:11;;;;;;;2.73;0.90;;;;;;;21.95;67.10;95535.09;5019712;28;20033;-82
2023/10/22 07:14:37;;;;;;;5.53;1.20;;;;;;;22.43;65.53;95536.22;5017633;28;20033;-82
2023/10/22 07:17:10;;;;;;;2.63;1.20;;;;;;;22.70;61.78;95537.09;5014386;28;20437;-82
2023/10/22 07:19:36;;;;;;;3.65;1.40;;;;;;;22.35;65.93;95546.34;5041696;28;20036;-82
2023/10/22 07:22:03;;;;;;;13.80;1.50;;;;;;;22.86;62.02;95540.72;5019728;28;20135;-82
2023/10/22 07:24:30;;;;;;;5.60;2.07;;;;;;;22.46;60.03;95535.72;5025265;28;20043;-81
2023/10/22 07:26:56;;;;;;;3.20;1.30;;;;;;;22.21;67.38;95544.28;5030326;28;20041;-82
2023/10/22 07:29:21;;;;;;;3.00;1.07;;;;;;;22.52;62.45;95548.13;5016312;28;20104;-82
2023/10/22 07:31:48;;;;;;;4.53;1.23;;;;;;;22.77;60.60;95548.41;5025230;28;20040;-82
2023/10/22 07:34:14;;;;;;;4.43;1.35;;;;;;;23.00;59.96;95551.84;5022925;28;20033;-82
2023/10/22 07:36:47;;;;;;;3.20;1.10;;;;;;;23.81;57.35;95556.25;5034896;28;20632;-82
2023/10/22 07:39:14;;;;;;;2.42;1.20;;;;;;;22.81;60.71;95559.44;5019150;28;20111;-81
2023/10/22 07:41:39;;;;;;;3.80;1.20;;;;;;;23.37;58.84;95559.16;5052940;28;20128;-81
2023/10/22 07:44:05;;;;;;;2.90;0.90;;;;;;;23.21;57.98;95559.03;5014983;28;20487;-81
2023/10/22 07:46:30;;;;;;;3.03;1.02;;;;;;;24.22;54.05;95568.06;5035715;28;20516;-82
2023/10/22 07:48:56;;;;;;;5.15;1.25;;;;;;;24.09;54.21;95563.97;5039424;28;20025;-81
2023/10/22 07:51:24;;;;;;;5.35;1.05;;;;;;;24.09;55.14;95574.72;5039389;28;20020;-82
2023/10/22 07:53:49;;;;;;;3.55;1.20;;;;;;;24.71;52.27;95575.78;5022977;28;20051;-81
2023/10/22 07:56:34;;;;;;;4.93;1.30;;;;;;;24.35;51.94;95575.66;5025954;28;20028;-82
2023/10/22 07:58:59;;;;;;;3.13;1.00;;;;;;;24.46;53.25;95585.38;5029166;28;20113;-81
2023/10/22 08:01:25;;;;;;;7.72;1.70;;;;;;;24.18;53.06;95591.97;5030380;28;20029;-82
2023/10/22 08:03:51;;;;;;;6.30;0.93;;;;;;;24.05;52.33;95592.41;5021995;28;20088;-82
2023/10/22 08:06:18;;;;;;;3.70;0.90;;;;;;;24.40;51.22;95590.97;5027974;28;20083;-82
2023/10/22 08:08:43;;;;;;;5.10;1.15;;;;;;;24.72;50.84;95590.88;5036555;28;20434;-82
2023/10/22 08:11:10;;;;;;;4.47;1.13;;;;;;;25.03;50.34;95593.63;5017234;28;20033;-82
2023/10/22 08:13:35;;;;;;;3.10;1.02;;;;;;;25.33;49.58;95598.28;5031947;28;20032;-83
2023/10/22 08:16:05;;;;;;;4.68;1.10;;;;;;;24.59;50.36;95608.28;5033610;28;20079;-83
2023/10/22 08:18:31;;;;;;;4.60;1.27;;;;;;;24.59;49.47;95612.88;5039125;28;20021;-82
2023/10/22 08:21:04;;;;;;;4.18;1.30;;;;;;;24.53;49.73;95622.78;5021638;28;20020;-82
2023/10/22 08:23:30;;;;;;;3.58;1.00;;;;;;;24.48;48.68;95620.09;5029229;28;20032;-83
2023/10/22 08:25:57;;;;;;;4.90;1.00;;;;;;;24.89;48.15;95614.84;5010019;28;20053;-83
2023/10/22 08:28:22;;;;;;;3.50;1.08;;;;;;;25.40;47.77;95617.66;5026626;28;20013;-80
2023/10/22 08:30:49;;;;;;;4.40;1.52;;;;;;;24.97;46.96;95626.97;5031056;28;20437;-81
2023/10/22 08:33:15;;;;;;;5.25;1.15;;;;;;;25.07;46.65;95616.22;5004703;28;20052;-81
2023/10/22 08:35:41;;;;;;;3.58;1.10;;;;;;;24.75;47.63;95622.63;5031681;28;20018;-81
2023/10/22 08:38:26;;;;;;;3.15;1.00;;;;;;;25.71;46.81;95620.34;5017413;28;20030;-81
2023/10/22 08:40:52;;;;;;;3.95;0.98;;;;;;;24.68;47.50;95624.72;5015146;28;20033;-82
2023/10/22 08:43:25;;;;;;;5.15;1.30;;;;;;;25.67;46.26;95616.59;5032465;28;20435;-81
2023/10/22 08:45:50;;;;;;;;;;;;;;;25.54;45.53;95623.31;5030500;28;20135;-82
2023/10/22 08:48:17;;;;;;;4.07;1.08;;;;;;;25.11;45.46;95620.84;5034703;28;20584;-82
2023/10/22 08:50:44;;;;;;;3.22;1.05;;;;;;;25.36;45.53;95630.03;5026258;28;20032;-87
2023/10/22 08:53:41;;;;;;;7.60;2.33;;;;;;;26.67;44.16;95622.09;5015817;28;20027;-89
2023/10/22 08:56:07;;;;;;;4.88;1.08;;;;;;;26.66;43.81;95617.78;5012386;28;20546;-86
2023/10/22 08:58:32;;;;;;;4.72;1.40;;;;;;;27.31;42.13;95625.84;5016052;28;20029;-86
2023/10/22 09:00:58;;;;;;;3.33;1.15;;;;;;;27.21;41.63;95636.69;5015911;28;20048;-84
2023/10/22 09:03:25;;;;;;;4.57;1.55;;;;;;;26.51;41.54;95618.66;5012501;28;20029;-84
2023/10/22 09:05:57;;;;;;;9.55;2.58;;;;;;;26.42;42.11;95620.25;5033096;28;20095;-83
2023/10/22 09:08:41;;;;;;;6.63;1.20;;;;;;;26.66;41.70;95633.97;5019433;28;20021;-83
2023/10/22 09:11:14;;;;;;;4.47;1.20;;;;;;;25.47;43.38;95634.34;5031556;28;20089;-83
2023/10/22 09:13:40;;;;;;;3.33;1.08;;;;;;;25.98;43.09;95630.88;5019017;28;20029;-82
2023/10/22 09:16:07;;;;;;;3.20;1.08;;;;;;;27.13;41.71;95640.81;5029914;28;20025;-82
2023/10/22 09:18:33;;;;;;;7.50;0.98;;;;;;;26.08;42.15;95645.13;5040550;28;20040;-82
2023/10/22 09:21:08;;;;;;;2.83;0.70;;;;;;;26.85;42.30;95638.75;5033777;28;20029;-82
2023/10/22 09:23:34;;;;;;;4.25;1.25;;;;;;;26.41;41.70;95642.91;5034418;28;20079;-82
2023/10/22 09:25:59;;;;;;;3.97;0.88;;;;;;;25.79;42.47;95638.69;5033551;28;20059;-82
2023/10/22 09:28:31;;;;;;;6.07;1.38;;;;;;;26.05;42.25;95645.66;5038338;28;20108;-82
2023/10/22 09:31:01;;;;;;;6.47;0.93;;;;;;;27.78;39.00;95643.34;5042855;28;20568;-83
2023/10/22 09:33:42;;;;;;;2.42;0.73;;;;;;;25.75;41.92;95654.53;5030520;28;20391;-83
2023/10/22 09:36:12;;;;;;;4.18;1.05;;;;;;;25.21;42.79;95648.84;5014061;28;20021;-82
2023/10/22 09:38:47;;;;;;;5.18;0.93;;;;;;;26.41;41.00;95645.63;5013217;28;20037;-83
2023/10/22 09:41:31;;;;;;;6.32;1.50;;;;;;;27.16;39.68;95642.94;5037647;28;20386;-83
2023/10/22 09:44:01;;;;;;;6.50;1.30;;;;;;;28.25;38.95;95644.53;5030322;28;20051;-83
2023/10/22 09:46:32;;;;;;;5.13;1.45;;;;;;;28.05;38.87;95655.56;5021852;28;20029;-83
2023/10/22 09:49:03;;;;;;;3.88;1.02;;;;;;;27.58;38.31;95652.38;5013155;28;20028;-82
2023/10/22 09:51:33;;;;;;;4.60;1.10;;;;;;;28.90;37.30;95653.03;5031089;28;20029;-82
2023/10/22 09:54:06;;;;;;;5.38;1.00;;;;;;;28.65;37.43;95648.72;5026414;28;20386;-83
2023/10/22 09:57:06;;;;;;;7.22;1.33;;;;;;;29.00;36.38;95643.19;5009316;28;20037;-82
2023/10/22 09:59:32;;;;;;;3.78;1.02;;;;;;;28.30;36.37;95657.19;5025517;28;20731;-83
2023/10/22 10:01:59;;;;;;;25.73;12.90;;;;;;;27.61;37.65;95656.41;5026553;28;20045;-82
2023/10/22 10:04:26;;;;;;;4.28;1.50;;;;;;;28.40;37.65;95655.25;5028657;28;20087;-82
2023/10/22 10:06:53;;;;;;;5.88;1.33;;;;;;;27.32;38.10;95662.53;5037434;28;20371;-83
2023/10/22 10:09:21;;;;;;;4.65;1.30;;;;;;;27.43;37.32;95665.97;5028810;28;20021;-83
2023/10/22 10:11:47;;;;;;;38.42;16.85;;;;;;;28.58;36.29;95663.72;5052609;28;20064;-82
2023/10/22 10:14:35;;;;;;;14.93;8.23;;;;;;;28.82;35.50;95652.88;5026959;28;20065;-82
2023/10/22 10:17:05;;;;;;;13.02;4.05;;;;;;;28.75;36.66;95653.22;5041245;28;20689;-82
2023/10/22 10:19:45;;;;;;;5.75;2.10;;;;;;;29.08;36.10;95656.09;5025274;28;20402;-82
2023/10/22 10:22:40;;;;;;;4.68;1.40;;;;;;;28.58;36.78;95659.09;5039465;28;20052;-82
2023/10/22 10:25:28;;;;;;;4.03;1.15;;;;;;;27.99;36.33;95662.09;5031739;28;20033;-83
2023/10/22 10:27:54;;;;;;;6.80;1.80;;;;;;;27.90;36.64;95664.59;5034420;28;20029;-84
2023/10/22 10:30:20;;;;;;;6.13;2.13;;;;;;;28.89;35.79;95658.75;5029971;28;20032;-83
2023/10/22 10:33:12;;;;;;;3.70;1.20;;;;;;;28.48;35.82;95664.63;5038675;28;20110;-83
2023/10/22 10:35:54;;;;;;;3.85;1.00;;;;;;;27.82;35.76;95663.31;5022298;28;20025;-83
2023/10/22 10:38:21;;;;;;;3.03;0.90;;;;;;;29.31;34.32;95655.25;5033010;28;20025;-85
2023/10/22 10:40:53;;;;;;;10.82;1.38;;;;;;;27.72;35.73;95658.75;5019251;28;20091;-83
2023/10/22 10:43:20;;;;;;;4.80;1.20;;;;;;;28.29;35.62;95659.09;5044755;28;20487;-82
2023/10/22 10:46:24;;;;;;;5.20;1.17;;;;;;;28.09;36.25;95659.28;5030798;28;20068;-83
2023/10/22 10:48:49;;;;;;;4.45;1.70;;;;;;;29.59;34.29;95658.09;5027952;28;20044;-84
2023/10/22 10:51:23;;;;;;;3.63;1.15;;;;;;;28.76;35.94;95657.53;5021175;28;20046;-83
2023/10/22 10:54:04;;;;;;;6.18;2.25;;;;;;;29.07;35.49;95655.28;5024839;28;20055;-83
2023/10/22 10:56:50;;;;;;;5.45;1.60;;;;;;;29.39;34.93;95656.47;5013805;28;20032;-83
2023/10/22 10:59:32;;;;;;;3.60;1.05;;;;;;;28.86;34.31;95660.13;5017749;28;20029;-83
2023/10/22 11:02:02;;;;;;;4.35;1.20;;;;;;;29.33;33.98;95644.91;5008639;28;20087;-83
2023/10/22 11:04:29;;;;;;;4.90;1.30;;;;;;;29.28;34.33;95655.03;5008358;28;20037;-83
2023/10/22 11:06:56;;;;;;;6.93;1.20;;;;;;;29.98;34.19;95657.75;5011973;28;20546;-83
2023/10/22 11:09:21;;;;;;;5.22;1.00;;;;;;;28.98;35.00;95661.63;5022971;28;20033;-83
2023/10/22 11:12:03;;;;;;;3.97;1.00;;;;;;;28.61;34.84;95671.25;4998449;28;20083;-83
2023/10/22 11:14:33;;;;;;;4.75;0.70;;;;;;;28.89;35.53;95664.16;5014445;28;20052;-83
2023/10/22 11:16:59;;;;;;;3.08;0.82;;;;;;;27.98;36.21;95661.28;5025124;28;20025;-83
2023/10/22 11:19:27;;;;;;;4.93;1.42;;;;;;;28.13;35.80;95660.34;5010327;28;20383;-84
2023/10/22 11:22:00;;;;;;;3.13;1.08;;;;;;;29.13;35.71;95656.81;5023679;28;20168;-84
2023/10/22 11:24:30;;;;;;;3.33;0.90;;;;;;;29.02;35.23;95658.06;5019169;28;20075;-83
2023/10/22 11:27:02;;;;;;;3.33;0.75;;;;;;;28.30;35.92;95665.31;5024801;28;20026;-84
2023/10/22 11:29:29;;;;;;;4.43;1.00;;;;;;;28.25;34.68;95665.38;5035111;28;20072;-83
2023/10/22 11:31:59;;;;;;;5.53;1.10;;;;;;;29.42;33.09;95657.81;5024234;28;20108;-83
2023/10/22 11:34:26;;;;;;;6.85;1.30;;;;;;;28.82;34.15;95659.09;5008704;28;20024;-83
2023/10/22 11:36:59;;;;;;;3.33;1.02;;;;;;;28.58;35.10;95653.69;5014209;28;20024;-84
2023/10/22 11:39:31;;;;;;;;;;;;;;;28.99;34.41;95649.69;5034659;28;20047;-84
2023/10/22 11:41:58;;;;;;;3.00;0.77;;;;;;;30.90;33.28;95645.25;5018373;28;19920;-85